Time;durP1;ratioP1;P1;durP2;ratioP2;P2;SDS_P1;SDS_P2;PMS_P1;PMS_P2;Temp;Humidity;BMP_temperature;BMP_pressure;BME280_temperature;BME280_humidity;BME280_pressure;Samples;Min_cycle;Max_cycle;Signal;HPM_P1;HPM_P2
2021/12/26 00:01:43;;;;;;;113.25;28.35;;;;;;;9.49;59.68;94343.31;5049250;28;20029;-64
2021/12/26 00:04:13;;;;;;;83.95;24.77;;;;;;;9.40;59.58;94318.66;5051337;28;20371;-63
2021/12/26 00:06:39;;;;;;;110.15;30.10;;;;;;;9.95;59.89;94339.13;5053239;28;20025;-64
2021/12/26 00:09:05;;;;;;;113.55;29.25;;;;;;;9.92;59.43;94344.28;5052451;28;20047;-65
2021/12/26 00:11:30;;;;;;;99.80;27.98;;;;;;;9.52;58.52;94302.88;5052553;28;20025;-66
2021/12/26 00:13:56;;;;;;;104.47;27.85;;;;;;;9.90;58.92;94305.53;5052798;28;20078;-64
2021/12/26 00:16:22;;;;;;;89.72;26.90;;;;;;;10.14;58.52;94338.75;5052876;28;20028;-66
2021/12/26 00:18:47;;;;;;;85.38;25.45;;;;;;;10.10;58.01;94343.13;5052827;28;20474;-66
2021/12/26 00:21:16;;;;;;;93.20;26.83;;;;;;;10.01;58.22;94331.75;5052503;28;20036;-66
2021/12/26 00:23:42;;;;;;;85.30;25.67;;;;;;;9.78;58.07;94300.13;5052790;28;20017;-66
2021/12/26 00:26:08;;;;;;;92.95;27.02;;;;;;;9.43;57.95;94299.47;5052717;28;20027;-66
2021/12/26 00:28:33;;;;;;;100.65;27.23;;;;;;;9.54;58.86;94291.94;5052373;28;20108;-65
2021/12/26 00:31:00;;;;;;;74.53;22.75;;;;;;;10.12;58.44;94338.25;5052418;28;20390;-66
2021/12/26 00:33:25;;;;;;;70.28;22.48;;;;;;;9.81;58.55;94290.75;5052883;28;20628;-65
2021/12/26 00:35:51;;;;;;;80.40;22.80;;;;;;;10.08;58.33;94316.88;5052625;28;20028;-66
2021/12/26 00:38:17;;;;;;;67.63;21.98;;;;;;;10.15;58.04;94332.31;5052249;28;20033;-66
2021/12/26 00:40:42;;;;;;;68.60;23.05;;;;;;;9.74;57.68;94277.19;5045604;23;20044;-65
2021/12/26 00:43:08;;;;;;;75.13;22.85;;;;;;;9.47;56.54;94283.66;5012708;28;20109;-64
2021/12/26 00:45:34;;;;;;;69.47;22.38;;;;;;;9.44;56.80;94321.47;5029982;28;20407;-65
2021/12/26 00:48:00;;;;;;;71.40;22.02;;;;;;;9.89;57.70;94366.97;5032316;28;20028;-65
2021/12/26 00:50:30;;;;;;;68.47;23.05;;;;;;;10.30;58.26;94345.09;5031991;28;20348;-65
2021/12/26 00:52:55;;;;;;;67.25;22.98;;;;;;;10.50;57.53;94345.47;5032355;28;20053;-65
2021/12/26 00:55:21;;;;;;;85.28;26.13;;;;;;;9.88;57.49;94238.69;5032105;28;20057;-65
2021/12/26 00:57:46;;;;;;;74.10;23.67;;;;;;;10.56;57.39;94344.94;5033052;28;20419;-65
2021/12/26 01:00:17;;;;;;;68.22;23.20;;;;;;;10.52;56.86;94345.91;5031545;28;20025;-65
2021/12/26 01:02:42;;;;;;;78.85;24.67;;;;;;;10.09;57.16;94299.84;5031963;28;20633;-65
2021/12/26 01:05:09;;;;;;;92.85;26.23;;;;;;;9.85;55.65;94294.31;5031800;28;20025;-64
2021/12/26 01:08:20;;;;;;;78.13;25.48;;;;;;;9.93;56.69;94277.59;5030530;28;20060;-65
2021/12/26 01:10:22;;;;;;;69.55;24.38;;;;;;;10.29;56.41;94322.28;5016962;28;20036;-65
2021/12/26 01:12:49;;;;;;;77.43;25.20;;;;;;;10.26;55.77;94332.75;5031458;28;20029;-65
2021/12/26 01:15:15;;;;;;;84.93;26.85;;;;;;;10.19;55.83;94308.56;5013415;28;20668;-65
2021/12/26 01:17:43;;;;;;;63.88;23.95;;;;;;;9.55;55.22;94219.16;5031785;28;20029;-65
2021/12/26 01:20:13;;;;;;;78.05;26.38;;;;;;;10.19;56.22;94304.00;5031073;28;20083;-65
2021/12/26 01:22:39;;;;;;;97.22;28.58;;;;;;;9.99;55.61;94307.41;5013688;28;20022;-65
2021/12/26 01:25:06;;;;;;;89.70;27.40;;;;;;;9.75;55.46;94314.03;5031483;28;20593;-65
2021/12/26 01:27:32;;;;;;;86.85;28.25;;;;;;;9.28;56.46;94241.59;5031193;28;20040;-65
2021/12/26 01:29:57;;;;;;;99.78;28.55;;;;;;;9.84;56.24;94300.75;5031098;28;20407;-65
2021/12/26 01:32:22;;;;;;;115.70;31.88;;;;;;;10.32;56.50;94368.69;5031689;28;20059;-65
2021/12/26 01:34:48;;;;;;;111.47;31.40;;;;;;;9.01;55.55;94163.19;5013622;28;20110;-64
2021/12/26 01:37:14;;;;;;;99.05;30.58;;;;;;;10.16;55.13;94336.53;5031493;28;20021;-65
2021/12/26 01:39:40;;;;;;;76.75;26.55;;;;;;;10.33;55.33;94341.00;5030537;28;20120;-64
2021/12/26 01:42:08;;;;;;;82.95;29.48;;;;;;;10.14;55.00;94320.13;5032031;28;20072;-65
2021/12/26 01:44:34;;;;;;;95.22;30.70;;;;;;;10.15;54.81;94308.41;5030974;28;20026;-65
2021/12/26 01:47:00;;;;;;;93.80;30.85;;;;;;;10.09;54.55;94325.63;5030993;28;20412;-65
2021/12/26 01:49:28;;;;;;;78.57;28.08;;;;;;;10.47;55.43;94354.06;5030512;28;20025;-65
2021/12/26 01:51:57;;;;;;;60.80;26.30;;;;;;;10.33;55.59;94355.06;5013471;28;20021;-65
2021/12/26 01:56:54;;;;;;;111.65;31.25;;;;;;;10.07;54.67;94351.72;5031567;28;20501;-64
2021/12/26 01:59:20;;;;;;;82.55;29.85;;;;;;;10.19;55.12;94353.72;5030296;28;20033;-65
2021/12/26 02:01:45;;;;;;;86.78;30.33;;;;;;;10.41;55.29;94346.28;5030802;28;20036;-65
2021/12/26 02:04:12;;;;;;;134.23;34.65;;;;;;;9.86;54.83;94311.81;5030761;28;20022;-65
2021/12/26 02:06:37;;;;;;;102.68;31.50;;;;;;;9.85;55.26;94289.00;5029782;28;20025;-65
2021/12/26 02:09:03;;;;;;;162.07;35.13;;;;;;;9.95;55.52;94349.75;5030046;28;20030;-64
2021/12/26 02:11:29;;;;;;;101.15;29.65;;;;;;;7.16;56.88;94034.13;5037127;28;20040;-64
2021/12/26 02:13:54;;;;;;;112.97;33.47;;;;;;;9.48;56.04;94277.28;5030477;28;20013;-64
2021/12/26 02:16:23;;;;;;;102.05;32.28;;;;;;;9.93;55.59;94309.47;5030515;28;20031;-65
2021/12/26 02:18:48;;;;;;;120.80;34.80;;;;;;;9.55;55.18;94227.91;5030391;28;20025;-65
2021/12/26 02:23:48;;;;;;;76.45;29.63;;;;;;;9.88;55.42;94302.44;5030727;28;20116;-65
2021/12/26 02:28:46;;;;;;;102.68;33.63;;;;;;;9.61;55.36;94274.41;5031423;28;20443;-65
2021/12/26 02:31:13;;;;;;;118.88;34.80;;;;;;;9.72;55.37;94306.69;5029976;28;20064;-65
2021/12/26 02:33:39;;;;;;;85.32;31.27;;;;;;;10.35;55.13;94341.47;5030549;28;20091;-64
2021/12/26 02:36:05;;;;;;;124.43;34.70;;;;;;;10.18;55.26;94355.59;5030503;28;20495;-64
2021/12/26 02:38:31;;;;;;;100.57;33.38;;;;;;;10.29;54.78;94322.28;5030388;28;20079;-63
2021/12/26 02:40:58;;;;;;;115.68;34.97;;;;;;;9.45;54.56;94193.75;5030750;28;20030;-63
2021/12/26 02:43:26;;;;;;;92.45;33.08;;;;;;;10.41;54.49;94322.34;5016800;28;20025;-65
2021/12/26 02:45:52;;;;;;;99.28;33.33;;;;;;;10.25;54.67;94297.44;5029903;28;20038;-65
2021/12/26 02:48:18;;;;;;;121.10;34.05;;;;;;;9.76;54.25;94246.53;5029796;28;20029;-65
2021/12/26 02:50:46;;;;;;;66.68;29.25;;;;;;;10.40;54.27;94334.09;5029871;28;20541;-65
2021/12/26 02:53:20;;;;;;;85.43;31.08;;;;;;;10.53;54.24;94345.56;5029811;28;20029;-64
2021/12/26 02:55:49;;;;;;;99.95;32.05;;;;;;;10.27;54.47;94321.81;5030022;28;20459;-65
2021/12/26 02:58:15;;;;;;;90.47;32.00;;;;;;;10.53;54.14;94326.19;5034313;28;20060;-65
2021/12/26 03:00:49;;;;;;;71.15;30.20;;;;;;;10.26;53.90;94251.16;5029367;28;20065;-65
2021/12/26 03:03:14;;;;;;;64.85;27.13;;;;;;;8.40;54.07;94004.31;5029733;28;20025;-64
2021/12/26 03:05:42;;;;;;;56.55;26.30;;;;;;;9.85;53.51;94207.44;5029764;28;20390;-64
2021/12/26 03:08:11;;;;;;;41.28;23.52;;;;;;;10.76;53.43;94337.31;5029455;28;20083;-64
2021/12/26 03:10:37;;;;;;;54.28;25.15;;;;;;;10.93;53.53;94340.59;5029422;28;20025;-65
2021/12/26 03:13:05;;;;;;;64.40;26.23;;;;;;;10.84;53.59;94347.09;5033707;28;20025;-65
2021/12/26 03:15:32;;;;;;;65.60;26.60;;;;;;;9.84;53.02;94194.50;5030578;28;20391;-65
2021/12/26 03:17:59;;;;;;;53.60;25.85;;;;;;;10.97;52.80;94348.72;5029630;28;20088;-65
2021/12/26 03:20:31;;;;;;;185.88;35.70;;;;;;;10.99;52.83;94345.72;5028996;28;20021;-65
2021/12/26 03:22:59;;;;;;;96.43;31.52;;;;;;;10.97;53.81;94353.28;5029508;28;20109;-65
2021/12/26 03:25:25;;;;;;;58.28;26.92;;;;;;;10.41;53.04;94250.56;5029580;28;20120;-65
2021/12/26 03:27:51;;;;;;;93.47;29.70;;;;;;;10.76;53.25;94287.53;5033699;28;20136;-64
2021/12/26 03:30:19;;;;;;;102.00;29.88;;;;;;;10.60;52.68;94300.66;5027949;28;20108;-65
2021/12/26 03:32:45;;;;;;;67.53;27.15;;;;;;;10.18;52.20;94229.91;5029503;28;20021;-64
2021/12/26 03:35:11;;;;;;;80.68;28.27;;;;;;;10.60;52.84;94282.03;5029433;28;20372;-64
2021/12/26 03:37:38;;;;;;;57.65;27.50;;;;;;;10.37;53.01;94246.22;5029651;28;20034;-64
2021/12/26 03:40:05;;;;;;;85.80;29.58;;;;;;;11.13;52.86;94344.38;5034968;28;20042;-64
2021/12/26 03:42:31;;;;;;;62.30;27.95;;;;;;;11.18;52.66;94346.81;5038962;28;20025;-64
2021/12/26 03:44:57;;;;;;;80.13;29.85;;;;;;;10.82;52.59;94310.19;5035489;28;20018;-64
2021/12/26 03:47:23;;;;;;;59.13;26.52;;;;;;;11.01;52.15;94354.19;5035804;28;20032;-64
2021/12/26 03:49:50;;;;;;;70.07;28.77;;;;;;;10.07;52.44;94209.03;5035329;28;20099;-64
2021/12/26 03:52:16;;;;;;;56.25;27.60;;;;;;;10.28;52.79;94256.91;5036053;28;20025;-63
2021/12/26 03:54:41;;;;;;;67.95;29.30;;;;;;;10.21;52.55;94261.94;5035803;28;20104;-64
2021/12/26 03:57:07;;;;;;;70.20;29.27;;;;;;;10.54;53.09;94309.91;5038398;28;20033;-64
2021/12/26 03:59:32;;;;;;;60.92;27.52;;;;;;;10.66;52.97;94319.84;5034778;28;20017;-64
2021/12/26 04:01:58;;;;;;;54.10;25.92;;;;;;;10.30;52.91;94238.78;5035576;28;20018;-64
2021/12/26 04:04:25;;;;;;;57.75;26.52;;;;;;;10.82;53.20;94336.78;5035537;28;20449;-64
2021/12/26 04:06:51;;;;;;;76.57;28.10;;;;;;;10.74;53.03;94316.34;5017954;28;20040;-64
2021/12/26 04:09:17;;;;;;;49.60;24.83;;;;;;;11.15;52.54;94341.38;5035162;28;20029;-64
2021/12/26 04:11:45;;;;;;;76.90;27.77;;;;;;;10.71;52.30;94293.06;5037759;28;20061;-63
2021/12/26 04:14:14;;;;;;;55.22;26.00;;;;;;;11.23;52.67;94350.41;5035436;28;20021;-63
2021/12/26 04:16:40;;;;;;;54.80;25.98;;;;;;;11.30;52.07;94354.06;5017875;28;20034;-64
2021/12/26 04:19:05;;;;;;;66.43;27.63;;;;;;;10.84;51.98;94326.59;5035352;28;20026;-64
2021/12/26 04:21:31;;;;;;;57.15;26.77;;;;;;;10.74;51.92;94312.91;5035645;28;20453;-63
2021/12/26 04:23:57;;;;;;;65.22;26.35;;;;;;;11.10;52.30;94360.97;5035455;28;20116;-64
2021/12/26 04:26:22;;;;;;;42.50;23.35;;;;;;;11.14;51.95;94364.53;5018316;28;20060;-64
2021/12/26 04:28:48;;;;;;;53.10;25.98;;;;;;;11.11;51.62;94356.44;5018193;28;20120;-66
2021/12/26 04:31:15;;;;;;;49.60;24.15;;;;;;;10.97;52.45;94342.63;5034812;28;20025;-64
2021/12/26 04:33:41;;;;;;;40.58;23.42;;;;;;;10.65;51.66;94281.06;5035460;28;20026;-64
2021/12/26 04:36:06;;;;;;;56.67;24.83;;;;;;;10.95;52.39;94321.66;5035917;28;20112;-63
2021/12/26 04:38:32;;;;;;;49.47;24.50;;;;;;;10.66;52.21;94280.72;5035463;28;20075;-64
2021/12/26 04:40:57;;;;;;;46.20;23.45;;;;;;;10.99;52.05;94325.22;5035367;28;20025;-64
2021/12/26 04:43:24;;;;;;;64.60;24.48;;;;;;;10.70;51.81;94288.84;5036387;28;20033;-64
2021/12/26 04:45:50;;;;;;;50.53;23.30;;;;;;;11.20;51.94;94359.81;5035027;28;20030;-63
2021/12/26 04:48:15;;;;;;;54.35;23.42;;;;;;;10.86;51.85;94305.00;5035050;28;20087;-64
2021/12/26 04:50:42;;;;;;;42.80;22.75;;;;;;;10.29;51.61;94277.09;5031909;28;20040;-64
2021/12/26 04:53:08;;;;;;;54.03;23.92;;;;;;;10.36;52.39;94280.00;5032212;28;20026;-64
2021/12/26 04:55:33;;;;;;;48.42;22.77;;;;;;;10.43;52.16;94319.34;5032340;28;20707;-64
2021/12/26 04:57:59;;;;;;;47.00;23.30;;;;;;;10.00;52.60;94261.13;5032338;28;20121;-64
2021/12/26 05:00:28;;;;;;;61.17;24.45;;;;;;;9.77;52.28;94221.53;5031120;28;20545;-64
2021/12/26 05:02:55;;;;;;;50.15;25.27;;;;;;;8.79;52.37;94058.09;5031755;28;20080;-65
2021/12/26 05:05:21;;;;;;;69.45;26.10;;;;;;;9.75;52.15;94196.41;5032039;28;20460;-65
2021/12/26 05:07:47;;;;;;;60.72;26.33;;;;;;;10.93;52.45;94372.53;5031877;28;20029;-64
2021/12/26 05:10:15;;;;;;;64.97;26.30;;;;;;;10.86;52.49;94366.19;5031290;28;20075;-64
2021/12/26 05:12:41;;;;;;;55.83;25.63;;;;;;;10.22;52.64;94268.03;5031353;28;20060;-64
2021/12/26 05:15:09;;;;;;;70.78;26.95;;;;;;;10.47;52.50;94300.91;5031621;28;20037;-64
2021/12/26 05:17:34;;;;;;;62.10;25.50;;;;;;;9.98;52.23;94229.56;5031651;28;20025;-64
2021/12/26 05:19:59;;;;;;;56.92;25.27;;;;;;;10.82;52.43;94365.28;5031105;28;20041;-64
2021/12/26 05:22:25;;;;;;;50.08;24.42;;;;;;;9.68;52.66;94196.94;5031658;28;20452;-64
2021/12/26 05:24:51;;;;;;;55.83;23.98;;;;;;;10.15;52.26;94245.41;5031448;28;20033;-64
2021/12/26 05:27:17;;;;;;;47.25;22.83;;;;;;;10.81;51.64;94318.50;5032062;28;20033;-64
2021/12/26 05:29:42;;;;;;;52.55;24.58;;;;;;;11.15;52.25;94379.41;5030660;28;20095;-65
2021/12/26 05:32:08;;;;;;;68.22;26.77;;;;;;;9.07;52.02;94050.50;5031380;28;20029;-65
2021/12/26 05:34:35;;;;;;;43.42;22.13;;;;;;;10.62;51.94;94284.38;5031309;28;20036;-65
2021/12/26 05:37:00;;;;;;;44.35;22.70;;;;;;;10.74;51.75;94320.88;5031472;28;20026;-65
2021/12/26 05:39:26;;;;;;;43.85;21.85;;;;;;;11.30;51.52;94366.59;5030582;28;20026;-65
2021/12/26 05:41:51;;;;;;;42.45;20.75;;;;;;;11.34;51.87;94365.63;5031304;28;20391;-65
2021/12/26 05:44:17;;;;;;;32.95;18.63;;;;;;;10.46;51.29;94228.34;5030873;28;20029;-65
2021/12/26 05:46:42;;;;;;;28.20;17.40;;;;;;;11.33;51.45;94364.09;5030988;28;20021;-64
2021/12/26 05:49:08;;;;;;;27.80;16.92;;;;;;;10.58;51.02;94238.25;5030347;28;20022;-64
2021/12/26 05:51:33;;;;;;;29.67;17.20;;;;;;;10.81;50.83;94281.25;5031400;28;20021;-64
2021/12/26 05:53:59;;;;;;;30.05;17.35;;;;;;;11.11;50.99;94319.19;5031146;28;20041;-64
2021/12/26 05:56:25;;;;;;;24.58;16.10;;;;;;;10.95;50.90;94300.34;5031197;28;20148;-64
2021/12/26 05:58:50;;;;;;;26.55;16.90;;;;;;;11.36;50.88;94374.09;5036921;28;20022;-65
2021/12/26 06:01:16;;;;;;;21.30;15.63;;;;;;;11.01;51.16;94311.59;5030272;28;20025;-65
2021/12/26 06:03:41;;;;;;;28.15;16.88;;;;;;;11.24;50.62;94330.66;5030990;28;20535;-65
2021/12/26 06:06:07;;;;;;;27.30;16.52;;;;;;;11.40;50.86;94343.00;5030964;28;20025;-64
2021/12/26 06:08:32;;;;;;;28.40;17.02;;;;;;;11.08;51.03;94309.97;5030830;28;20467;-64
2021/12/26 06:10:58;;;;;;;25.02;16.73;;;;;;;11.09;50.56;94292.09;5012523;28;20091;-64
2021/12/26 06:13:24;;;;;;;22.42;15.15;;;;;;;11.50;50.61;94371.13;5036607;28;20239;-64
2021/12/26 06:15:50;;;;;;;22.17;14.95;;;;;;;11.23;50.25;94335.19;5030520;28;20083;-64
2021/12/26 06:18:15;;;;;;;21.13;15.07;;;;;;;11.19;50.13;94326.31;5030588;28;20037;-64
2021/12/26 06:20:41;;;;;;;22.58;15.82;;;;;;;10.99;50.41;94313.81;5030232;28;20025;-64
2021/12/26 06:23:07;;;;;;;25.88;16.13;;;;;;;11.38;50.35;94373.75;5030711;28;20033;-63
2021/12/26 06:25:33;;;;;;;21.48;15.65;;;;;;;11.24;50.59;94358.06;5030568;28;20022;-64
2021/12/26 06:27:58;;;;;;;24.30;15.93;;;;;;;10.82;50.61;94291.56;5018107;28;20407;-64
2021/12/26 06:30:24;;;;;;;23.35;15.55;;;;;;;11.33;50.28;94376.63;5029704;28;20029;-63
2021/12/26 06:32:49;;;;;;;20.70;14.73;;;;;;;10.91;50.71;94321.53;5030634;28;20026;-63
2021/12/26 06:35:15;;;;;;;18.60;14.38;;;;;;;10.45;50.54;94257.91;5030608;28;20030;-64
2021/12/26 06:37:40;;;;;;;20.90;15.13;;;;;;;10.53;50.53;94292.41;5029146;28;20024;-64
2021/12/26 06:40:08;;;;;;;16.00;13.27;;;;;;;10.59;50.73;94306.28;5029628;28;20070;-64
2021/12/26 06:42:40;;;;;;;18.60;14.43;;;;;;;10.84;51.02;94320.50;5035076;28;20020;-64
2021/12/26 06:45:06;;;;;;;16.70;13.88;;;;;;;10.76;50.54;94337.31;5023356;28;20517;-64
2021/12/26 06:47:31;;;;;;;19.48;14.50;;;;;;;10.99;50.84;94361.69;5030002;28;20040;-64
2021/12/26 06:49:57;;;;;;;14.77;12.80;;;;;;;11.17;51.28;94385.19;5029436;28;20017;-64
2021/12/26 06:52:22;;;;;;;14.57;12.35;;;;;;;11.24;51.51;94390.00;5030194;28;20030;-64
2021/12/26 06:54:48;;;;;;;15.98;13.63;;;;;;;11.30;51.11;94388.69;5030223;28;20107;-64
2021/12/26 06:57:14;;;;;;;16.95;13.82;;;;;;;11.13;50.71;94359.56;5031949;28;20101;-64
2021/12/26 06:59:39;;;;;;;20.80;15.73;;;;;;;11.23;49.88;94401.75;5031082;28;20041;-64
2021/12/26 07:02:05;;;;;;;18.45;14.30;;;;;;;11.17;50.83;94398.50;5029807;28;20013;-64
2021/12/26 07:04:30;;;;;;;18.75;15.40;;;;;;;9.73;49.87;94210.03;5029805;28;20120;-63
2021/12/26 07:06:56;;;;;;;18.05;14.80;;;;;;;9.63;50.35;94195.22;5029956;28;20026;-64
2021/12/26 07:09:21;;;;;;;18.13;15.20;;;;;;;10.85;50.69;94354.78;5029072;28;20017;-64
2021/12/26 07:11:47;;;;;;;21.65;16.35;;;;;;;10.91;50.46;94379.28;5029746;28;20057;-64
2021/12/26 07:14:13;;;;;;;23.27;16.60;;;;;;;10.67;50.61;94342.69;5032456;28;20149;-64
2021/12/26 07:16:38;;;;;;;21.80;16.08;;;;;;;9.71;50.51;94182.22;5029518;28;20033;-64
2021/12/26 07:19:03;;;;;;;22.35;16.77;;;;;;;11.14;50.05;94412.47;5029024;28;20026;-64
2021/12/26 07:21:29;;;;;;;19.00;15.63;;;;;;;11.31;50.92;94413.41;5029639;28;20592;-65
2021/12/26 07:23:54;;;;;;;21.40;16.63;;;;;;;10.82;50.05;94344.75;5029347;28;20037;-65
2021/12/26 07:26:20;;;;;;;26.10;16.83;;;;;;;11.35;49.68;94420.44;5029582;28;20033;-64
2021/12/26 07:28:45;;;;;;;21.00;15.80;;;;;;;10.86;49.80;94337.69;5031955;28;20029;-64
2021/12/26 07:31:11;;;;;;;21.10;16.23;;;;;;;10.34;49.68;94266.28;5028959;28;20108;-64
2021/12/26 07:33:36;;;;;;;21.40;16.13;;;;;;;10.81;50.01;94337.13;5029260;28;20356;-64
2021/12/26 07:36:03;;;;;;;23.20;16.30;;;;;;;11.44;49.83;94431.81;5029627;28;20029;-65
2021/12/26 07:38:29;;;;;;;17.73;14.10;;;;;;;10.87;49.84;94325.94;5029058;28;20021;-64
2021/12/26 07:40:54;;;;;;;17.20;13.95;;;;;;;10.41;49.24;94260.44;5029279;28;20033;-64
2021/12/26 07:43:20;;;;;;;18.38;14.57;;;;;;;11.33;49.03;94422.66;5031900;28;20033;-64
2021/12/26 07:45:45;;;;;;;14.45;12.73;;;;;;;10.78;49.52;94365.13;5028998;28;20026;-64
2021/12/26 07:48:10;;;;;;;17.45;14.70;;;;;;;10.66;49.47;94331.25;5029108;28;20472;-64
2021/12/26 07:50:36;;;;;;;16.90;14.73;;;;;;;11.05;49.27;94395.00;5028990;28;20109;-65
2021/12/26 07:53:07;;;;;;;17.80;14.63;;;;;;;11.51;50.48;94436.59;5028990;28;20128;-64
2021/12/26 07:55:32;;;;;;;16.50;13.95;;;;;;;11.13;49.81;94367.53;5029300;28;20482;-64
2021/12/26 07:57:58;;;;;;;17.15;14.68;;;;;;;11.50;49.19;94419.06;5030996;28;20064;-64
2021/12/26 08:00:23;;;;;;;19.60;15.45;;;;;;;10.86;49.70;94342.25;5028205;28;20100;-64
2021/12/26 08:02:49;;;;;;;17.65;14.60;;;;;;;10.77;49.13;94289.09;5028891;28;20030;-64
2021/12/26 08:05:15;;;;;;;16.05;14.35;;;;;;;9.74;48.90;94139.88;5029390;28;20055;-64
2021/12/26 08:07:41;;;;;;;18.02;15.20;;;;;;;11.04;49.26;94330.34;5029483;28;20025;-65
2021/12/26 08:10:07;;;;;;;15.93;14.32;;;;;;;10.99;48.82;94325.22;5028335;28;20398;-65
2021/12/26 08:12:33;;;;;;;15.05;13.52;;;;;;;11.76;48.37;94445.47;5030466;28;20083;-65
2021/12/26 08:15:01;;;;;;;13.85;12.45;;;;;;;9.81;48.24;94161.38;5029010;28;20030;-65
2021/12/26 08:17:27;;;;;;;17.73;14.27;;;;;;;10.09;48.07;94176.84;5028911;28;20021;-64
2021/12/26 08:19:53;;;;;;;14.45;12.95;;;;;;;11.44;48.18;94373.22;5028102;28;20029;-62
2021/12/26 08:22:18;;;;;;;17.88;15.05;;;;;;;11.34;48.55;94367.53;5028900;28;20410;-65
2021/12/26 08:24:44;;;;;;;17.95;14.73;;;;;;;10.50;48.46;94220.50;5029033;28;20035;-64
2021/12/26 08:27:09;;;;;;;18.13;15.00;;;;;;;11.75;47.97;94403.94;5014996;28;20033;-65
2021/12/26 08:29:35;;;;;;;17.35;14.93;;;;;;;12.14;47.93;94463.94;5032588;28;20063;-64
2021/12/26 08:32:01;;;;;;;15.05;13.55;;;;;;;12.14;47.93;94455.19;5032435;28;20018;-66
2021/12/26 08:34:27;;;;;;;15.93;13.65;;;;;;;12.10;47.73;94460.38;5032936;28;20040;-68
2021/12/26 08:37:00;;;;;;;17.90;14.60;;;;;;;11.95;48.04;94453.78;5031441;28;20026;-67
2021/12/26 08:39:30;;;;;;;16.48;14.50;;;;;;;11.63;48.62;94459.88;5031864;28;20024;-66
2021/12/26 08:41:56;;;;;;;17.25;14.48;;;;;;;11.74;49.15;94454.91;5032603;28;20029;-66
2021/12/26 08:44:22;;;;;;;17.10;15.35;;;;;;;11.44;49.70;94433.69;5032594;28;20034;-66
2021/12/26 08:46:47;;;;;;;18.30;15.50;;;;;;;11.34;50.52;94455.38;5032606;28;20556;-67
2021/12/26 08:49:14;;;;;;;21.48;15.75;;;;;;;11.16;49.81;94446.75;5032242;28;20029;-67
2021/12/26 08:51:40;;;;;;;20.50;15.73;;;;;;;11.01;50.78;94453.44;5032757;28;20028;-68
2021/12/26 08:54:05;;;;;;;31.75;16.70;;;;;;;11.15;50.47;94418.56;5032197;28;20071;-64
2021/12/26 08:56:31;;;;;;;28.17;18.40;;;;;;;10.58;50.66;94328.66;5032174;28;20026;-63
2021/12/26 08:58:56;;;;;;;25.98;17.52;;;;;;;11.12;50.19;94409.34;5014526;28;20022;-64
2021/12/26 09:01:22;;;;;;;28.38;18.95;;;;;;;11.37;50.85;94439.53;5032264;28;20076;-63
2021/12/26 09:03:47;;;;;;;27.67;18.40;;;;;;;11.60;51.13;94460.50;5031893;28;20101;-64
2021/12/26 09:06:13;;;;;;;36.55;19.77;;;;;;;11.16;52.04;94393.53;5032043;28;20056;-67
2021/12/26 09:08:39;;;;;;;33.10;19.05;;;;;;;11.64;51.87;94467.53;5031936;28;20369;-66
2021/12/26 09:11:04;;;;;;;42.55;20.90;;;;;;;11.19;52.42;94392.84;5031798;28;20033;-65
2021/12/26 09:13:30;;;;;;;29.67;19.27;;;;;;;11.38;52.31;94429.66;5032324;28;20037;-64
2021/12/26 09:15:55;;;;;;;39.28;19.98;;;;;;;11.41;53.24;94443.13;5030764;28;20028;-64
2021/12/26 09:18:21;;;;;;;22.85;17.83;;;;;;;11.14;52.89;94401.03;5030301;28;20053;-63
2021/12/26 09:20:47;;;;;;;23.70;15.80;;;;;;;10.86;51.45;94351.00;5031605;28;20115;-63
2021/12/26 09:23:12;;;;;;;25.05;17.02;;;;;;;11.29;51.96;94419.09;5031865;28;20107;-64
2021/12/26 09:25:38;;;;;;;23.23;16.85;;;;;;;10.81;52.66;94353.84;5031839;28;20706;-64
2021/12/26 09:28:04;;;;;;;30.75;18.27;;;;;;;10.83;53.23;94366.81;5034798;28;20021;-64
2021/12/26 09:30:30;;;;;;;27.88;18.08;;;;;;;11.68;53.42;94473.75;5034707;28;20094;-63
2021/12/26 09:32:55;;;;;;;26.77;17.42;;;;;;;11.61;52.61;94472.72;5030516;28;20036;-63
2021/12/26 09:35:20;;;;;;;26.70;17.58;;;;;;;11.75;52.46;94475.09;5031729;28;20037;-64
2021/12/26 09:37:46;;;;;;;24.08;16.17;;;;;;;11.75;52.00;94473.22;5031271;28;20100;-64
2021/12/26 09:40:14;;;;;;;19.25;15.27;;;;;;;11.91;52.03;94476.84;5030819;28;20095;-64
2021/12/26 09:42:40;;;;;;;18.60;14.80;;;;;;;11.32;51.74;94367.84;5031644;28;20107;-64
2021/12/26 09:45:08;;;;;;;16.48;13.60;;;;;;;12.03;49.46;94475.34;5037892;28;20483;-64
2021/12/26 09:47:34;;;;;;;17.73;14.05;;;;;;;11.87;51.97;94443.97;5032571;28;20467;-65
2021/12/26 09:50:00;;;;;;;16.85;13.38;;;;;;;11.81;51.63;94413.28;5030550;28;20025;-65
2021/12/26 09:52:26;;;;;;;17.17;12.73;;;;;;;12.20;52.11;94456.50;5031417;28;20472;-66
2021/12/26 09:54:51;;;;;;;17.60;13.40;;;;;;;12.43;51.73;94457.66;5031156;28;20036;-63
2021/12/26 09:57:17;;;;;;;20.88;13.23;;;;;;;12.44;51.30;94427.22;5031135;28;20029;-66
2021/12/26 09:59:43;;;;;;;16.15;12.23;;;;;;;12.69;50.66;94453.88;5036037;28;20031;-63
2021/12/26 10:02:13;;;;;;;12.25;10.95;;;;;;;12.92;49.87;94462.25;5030871;28;20364;-63
2021/12/26 10:04:39;;;;;;;10.95;9.90;;;;;;;12.74;48.87;94422.44;5013167;28;20025;-63
2021/12/26 10:07:09;;;;;;;10.77;9.80;;;;;;;13.01;48.97;94458.34;5030699;28;20041;-64
2021/12/26 10:09:44;;;;;;;11.15;10.15;;;;;;;13.13;48.67;94452.19;5012503;28;20083;-66
2021/12/26 10:12:13;;;;;;;10.52;9.52;;;;;;;13.18;48.38;94441.28;5030769;28;20116;-64
2021/12/26 10:14:40;;;;;;;10.55;9.45;;;;;;;12.89;48.15;94396.94;5035862;28;20075;-63
2021/12/26 10:17:12;;;;;;;11.50;10.18;;;;;;;13.40;48.28;94444.59;5030829;28;20033;-64
2021/12/26 10:19:40;;;;;;;10.75;9.65;;;;;;;13.13;47.80;94403.38;5030346;28;20036;-64
2021/12/26 10:22:08;;;;;;;10.20;9.27;;;;;;;13.07;47.59;94378.78;5031201;28;20033;-64
2021/12/26 10:24:36;;;;;;;11.30;9.30;;;;;;;13.56;47.20;94433.97;5030795;28;20040;-64
2021/12/26 10:27:08;;;;;;;10.60;9.07;;;;;;;13.68;46.64;94433.94;5030858;28;20082;-64
2021/12/26 10:29:45;;;;;;;9.88;9.00;;;;;;;13.22;46.10;94353.31;5034449;28;20060;-64
2021/12/26 10:32:20;;;;;;;9.70;8.80;;;;;;;13.97;46.18;94441.63;5039324;28;20033;-65
2021/12/26 10:34:50;;;;;;;9.20;8.40;;;;;;;13.98;45.84;94440.50;5030701;28;20021;-63
2021/12/26 10:37:22;;;;;;;9.55;8.75;;;;;;;14.02;46.45;94441.38;5030512;28;20021;-65
2021/12/26 10:39:53;;;;;;;10.45;9.35;;;;;;;13.91;46.09;94436.84;5029718;28;20566;-64
2021/12/26 10:42:21;;;;;;;9.97;9.07;;;;;;;13.56;45.84;94378.66;5030076;28;20037;-66
2021/12/26 10:44:50;;;;;;;9.73;8.82;;;;;;;13.77;46.08;94422.00;5034870;28;20299;-64
2021/12/26 10:47:19;;;;;;;10.57;9.68;;;;;;;13.92;46.34;94443.75;5029725;28;20079;-64
2021/12/26 10:49:50;;;;;;;10.93;9.93;;;;;;;13.97;46.10;94449.66;5029455;28;20028;-63
2021/12/26 10:52:21;;;;;;;14.05;10.35;;;;;;;13.61;46.86;94396.34;5029026;28;20032;-63
2021/12/26 10:55:12;;;;;;;10.93;9.93;;;;;;;13.87;46.15;94452.00;5012448;28;20026;-66
2021/12/26 10:57:43;;;;;;;11.57;10.48;;;;;;;13.90;46.25;94435.31;5012613;28;20045;-66
2021/12/26 11:00:14;;;;;;;10.60;9.68;;;;;;;13.94;46.34;94447.66;5014838;28;20509;-65
2021/12/26 11:03:03;;;;;;;11.48;10.38;;;;;;;14.01;46.06;94442.47;5029823;28;20030;-66
2021/12/26 11:05:42;;;;;;;11.63;10.50;;;;;;;14.04;46.85;94436.44;5012449;28;20567;-65
2021/12/26 11:08:39;;;;;;;12.00;10.88;;;;;;;14.18;46.68;94437.94;5011833;28;20104;-65
2021/12/26 11:11:16;;;;;;;11.13;10.10;;;;;;;14.12;46.02;94431.28;5015464;28;20038;-65
2021/12/26 11:13:42;;;;;;;9.80;8.98;;;;;;;14.00;45.88;94432.91;5032477;28;20395;-65
2021/12/26 11:16:08;;;;;;;10.07;9.18;;;;;;;13.90;45.71;94403.22;5029358;28;20022;-65
2021/12/26 11:18:36;;;;;;;11.18;10.07;;;;;;;14.08;46.24;94419.75;5029109;28;20021;-65
2021/12/26 11:21:12;;;;;;;10.90;9.90;;;;;;;14.05;46.07;94407.81;5029330;28;20032;-65
2021/12/26 11:23:39;;;;;;;12.57;11.38;;;;;;;14.27;46.53;94428.63;5011779;28;20032;-65
2021/12/26 11:26:12;;;;;;;10.82;9.75;;;;;;;14.25;46.02;94424.75;5011761;28;20076;-66